Time;durP1;ratioP1;P1;durP2;ratioP2;P2;SDS_P1;SDS_P2;PMS_P1;PMS_P2;Temp;Humidity;BMP_temperature;BMP_pressure;BME280_temperature;BME280_humidity;BME280_pressure;Samples;Min_cycle;Max_cycle;Signal;HPM_P1;HPM_P2
2023/03/20 00:01:43;;;;;;;7.72;4.85;;;;;;;9.18;100.00;102011.19;5040428;28;20025;-65
2023/03/20 00:04:09;;;;;;;8.60;4.82;;;;;;;9.16;100.00;102008.59;5048273;28;20028;-66
2023/03/20 00:06:35;;;;;;;9.93;5.15;;;;;;;9.14;100.00;101989.31;5030486;28;20044;-65
2023/03/20 00:09:01;;;;;;;9.13;4.60;;;;;;;9.03;100.00;101984.13;5048494;28;20017;-66
2023/03/20 00:11:32;;;;;;;14.70;5.50;;;;;;;8.94;100.00;101985.09;5048000;28;20116;-65
2023/03/20 00:13:59;;;;;;;10.90;5.03;;;;;;;8.86;100.00;101992.19;5047609;28;20043;-65
2023/03/20 00:16:30;;;;;;;16.92;6.05;;;;;;;8.77;100.00;102006.28;5047782;28;20036;-64
2023/03/20 00:18:55;;;;;;;15.85;6.32;;;;;;;8.72;100.00;102008.94;5028597;28;20032;-66
2023/03/20 00:21:21;;;;;;;12.68;6.32;;;;;;;8.75;100.00;102015.91;5046696;28;20029;-66
2023/03/20 00:23:46;;;;;;;9.38;6.13;;;;;;;8.77;100.00;102016.78;5048488;28;20025;-65
2023/03/20 00:26:19;;;;;;;14.82;5.57;;;;;;;8.76;100.00;102032.56;5046997;28;20087;-65
2023/03/20 00:28:45;;;;;;;13.77;5.57;;;;;;;8.74;100.00;102040.47;5048079;28;20029;-65
2023/03/20 00:31:32;;;;;;;17.95;6.28;;;;;;;8.73;100.00;102043.94;5028964;28;20511;-66
2023/03/20 00:34:00;;;;;;;21.35;7.97;;;;;;;8.78;100.00;102046.53;5015142;28;20070;-66
2023/03/20 00:36:26;;;;;;;16.58;6.88;;;;;;;8.52;100.00;102043.16;5047509;28;20024;-65
2023/03/20 00:38:52;;;;;;;14.15;6.35;;;;;;;8.43;100.00;102032.75;5047053;28;20029;-64
2023/03/20 00:41:27;;;;;;;19.55;7.30;;;;;;;8.32;100.00;102025.78;5046201;28;20035;-65
2023/03/20 00:44:01;;;;;;;16.77;6.82;;;;;;;8.38;100.00;102018.75;5047647;28;20167;-66
2023/03/20 00:46:28;;;;;;;15.32;7.15;;;;;;;8.31;100.00;102017.91;5028585;28;20094;-65
2023/03/20 00:48:53;;;;;;;14.20;6.50;;;;;;;8.31;100.00;102023.16;5045223;28;20021;-65
2023/03/20 00:51:19;;;;;;;15.75;6.70;;;;;;;8.30;100.00;102019.66;5029012;28;20035;-65
2023/03/20 00:53:44;;;;;;;15.43;6.90;;;;;;;8.21;100.00;102022.31;5046294;28;20439;-65
2023/03/20 00:56:37;;;;;;;24.80;7.20;;;;;;;8.17;100.00;102010.09;5028828;28;20388;-65
2023/03/20 00:59:03;;;;;;;15.57;6.50;;;;;;;8.15;100.00;102009.22;5046637;28;20029;-64
2023/03/20 01:01:29;;;;;;;15.55;7.25;;;;;;;8.17;100.00;102000.47;5046883;28;20785;-64
2023/03/20 01:03:54;;;;;;;24.27;8.20;;;;;;;8.19;100.00;101996.06;5028513;28;20024;-64
2023/03/20 01:06:20;;;;;;;14.43;7.43;;;;;;;8.46;100.00;102003.81;5046789;28;20064;-64
2023/03/20 01:08:47;;;;;;;18.98;7.63;;;;;;;8.47;100.00;101998.56;5045679;28;20540;-64
2023/03/20 01:11:13;;;;;;;17.92;8.00;;;;;;;8.46;100.00;102001.19;5028160;28;20472;-65
2023/03/20 01:13:39;;;;;;;16.58;7.80;;;;;;;8.50;100.00;102005.53;5012002;28;20021;-66
2023/03/20 01:16:05;;;;;;;16.50;7.80;;;;;;;8.43;100.00;102009.94;5046491;28;20017;-66
2023/03/20 01:18:31;;;;;;;19.95;7.57;;;;;;;8.38;100.00;101998.63;5045187;28;20443;-65
2023/03/20 01:20:56;;;;;;;19.33;7.28;;;;;;;8.32;100.00;101991.66;5045890;28;20021;-65
2023/03/20 01:23:21;;;;;;;17.45;7.30;;;;;;;8.34;100.00;102003.00;5046918;28;20091;-65
2023/03/20 01:25:48;;;;;;;19.05;7.78;;;;;;;8.35;100.00;102024.91;5046419;28;20061;-66
2023/03/20 01:28:20;;;;;;;19.85;8.23;;;;;;;8.28;100.00;102034.53;5047101;28;20037;-65
2023/03/20 01:30:46;;;;;;;20.30;7.28;;;;;;;8.27;100.00;102037.16;5046502;28;20029;-68
2023/03/20 01:33:20;;;;;;;20.83;8.38;;;;;;;8.31;100.00;102038.94;5045714;28;20025;-65
2023/03/20 01:35:46;;;;;;;15.98;8.00;;;;;;;8.26;100.00;102049.44;5046214;28;20024;-65
2023/03/20 01:38:18;;;;;;;21.27;8.15;;;;;;;8.21;100.00;102053.84;5044193;28;20045;-65
2023/03/20 01:40:53;;;;;;;16.08;7.97;;;;;;;8.19;100.00;102055.63;5028597;28;20025;-65
2023/03/20 01:43:20;;;;;;;22.08;8.70;;;;;;;8.28;100.00;102050.28;5045685;28;20059;-64
2023/03/20 01:46:16;;;;;;;22.63;8.35;;;;;;;8.29;100.00;102052.06;5046606;28;20021;-67
2023/03/20 01:48:51;;;;;;;18.17;7.75;;;;;;;8.26;100.00;102049.44;5022283;28;20041;-65
2023/03/20 01:51:24;;;;;;;20.75;8.63;;;;;;;8.33;100.00;102045.91;5045892;28;20021;-65
2023/03/20 01:53:52;;;;;;;25.58;9.13;;;;;;;8.30;100.00;102038.03;5046278;28;20029;-64
2023/03/20 01:56:19;;;;;;;18.58;8.38;;;;;;;8.33;100.00;102032.78;5046755;28;20041;-65
2023/03/20 01:58:50;;;;;;;24.13;8.63;;;;;;;8.24;100.00;102026.72;5046794;28;20091;-65
2023/03/20 02:01:16;;;;;;;20.90;9.02;;;;;;;8.31;100.00;102018.78;5027597;28;20033;-64
2023/03/20 02:03:43;;;;;;;20.98;8.85;;;;;;;8.28;100.00;102031.91;5028899;28;20025;-66
2023/03/20 02:06:09;;;;;;;19.58;8.82;;;;;;;8.36;100.00;102025.78;5045809;28;20083;-66
2023/03/20 02:08:54;;;;;;;21.35;8.98;;;;;;;8.38;100.00;102022.25;5028633;28;20037;-65
2023/03/20 02:11:21;;;;;;;23.90;9.80;;;;;;;8.42;100.00;102028.34;5045255;28;20128;-65
2023/03/20 02:13:46;;;;;;;21.23;8.88;;;;;;;8.44;100.00;102019.59;5032888;28;20102;-65
2023/03/20 02:16:13;;;;;;;19.05;9.07;;;;;;;8.41;100.00;102014.34;5032105;28;20457;-66
2023/03/20 02:18:41;;;;;;;22.35;8.95;;;;;;;8.42;100.00;102007.31;5032091;28;20057;-66
2023/03/20 02:21:23;;;;;;;24.75;9.68;;;;;;;8.40;100.00;102002.09;5032634;28;20104;-67
2023/03/20 02:24:22;;;;;;;24.58;9.57;;;;;;;8.38;100.00;101984.59;5031020;28;20040;-65
2023/03/20 02:27:08;;;;;;;21.90;9.63;;;;;;;8.29;100.00;101993.41;5049229;28;20033;-65
2023/03/20 02:30:00;;;;;;;18.73;10.55;;;;;;;8.30;100.00;101993.41;5049960;28;20506;-65
2023/03/20 02:32:46;;;;;;;18.02;9.63;;;;;;;8.30;100.00;101977.66;5049066;28;20060;-65
2023/03/20 02:35:46;;;;;;;20.92;9.20;;;;;;;8.25;100.00;101971.53;5024557;28;20468;-65
2023/03/20 02:38:21;;;;;;;21.88;10.25;;;;;;;8.19;100.00;101961.09;5011806;28;20485;-65
2023/03/20 02:40:55;;;;;;;25.10;11.00;;;;;;;8.12;100.00;101957.63;5031835;28;20627;-65
2023/03/20 02:43:26;;;;;;;26.35;12.75;;;;;;;8.11;100.00;101973.38;5049016;28;20031;-66
2023/03/20 02:46:18;;;;;;;20.33;11.27;;;;;;;8.17;100.00;101973.34;5031383;28;20108;-66
2023/03/20 02:48:50;;;;;;;23.00;10.00;;;;;;;8.17;100.00;101973.34;5048161;28;20084;-65
2023/03/20 02:51:40;;;;;;;23.20;11.13;;;;;;;8.17;100.00;101974.22;5014778;28;20032;-64
2023/03/20 02:54:17;;;;;;;19.13;10.30;;;;;;;8.13;100.00;101972.47;5048834;28;20145;-64
2023/03/20 02:57:01;;;;;;;26.40;11.30;;;;;;;8.20;100.00;101962.81;5049056;28;20083;-65
2023/03/20 03:00:04;;;;;;;25.45;11.40;;;;;;;8.22;100.00;101966.31;5049821;28;20029;-65
2023/03/20 03:02:36;;;;;;;22.88;10.75;;;;;;;8.23;100.00;101965.44;5045577;28;20037;-65
2023/03/20 03:05:17;;;;;;;23.98;11.27;;;;;;;8.21;100.00;101956.69;5031999;28;20499;-65
2023/03/20 03:07:45;;;;;;;22.77;11.60;;;;;;;7.80;100.00;101948.16;5031498;28;20033;-65
2023/03/20 03:10:15;;;;;;;25.83;11.68;;;;;;;7.75;100.00;101956.03;5049167;28;20033;-64
2023/03/20 03:12:43;;;;;;;24.27;12.02;;;;;;;7.74;100.00;101959.56;5048863;28;20045;-64
2023/03/20 03:15:38;;;;;;;21.75;11.40;;;;;;;7.67;100.00;101952.56;5031587;28;20055;-64
2023/03/20 03:18:05;;;;;;;25.30;13.10;;;;;;;7.70;100.00;101952.56;5035039;28;20041;-65
2023/03/20 03:20:37;;;;;;;23.17;11.68;;;;;;;7.73;100.00;101949.91;5031088;28;20055;-64
2023/03/20 03:23:03;;;;;;;23.08;11.88;;;;;;;7.72;100.00;101942.94;5031368;28;20060;-64
2023/03/20 03:25:35;;;;;;;25.02;12.23;;;;;;;7.74;100.00;101938.56;5030931;28;20067;-65
2023/03/20 03:28:27;;;;;;;28.27;11.48;;;;;;;7.80;100.00;101937.66;5027061;28;20029;-64
2023/03/20 03:30:53;;;;;;;23.00;12.18;;;;;;;7.74;100.00;101935.06;5028012;28;20108;-66
2023/03/20 03:33:21;;;;;;;21.73;11.52;;;;;;;7.68;100.00;101928.09;5010024;28;20148;-64
2023/03/20 03:35:47;;;;;;;24.48;11.88;;;;;;;7.72;100.00;101929.81;5021724;28;20033;-64
2023/03/20 03:38:35;;;;;;;26.15;11.57;;;;;;;7.71;100.00;101931.56;5030508;28;20036;-65
2023/03/20 03:41:06;;;;;;;22.75;11.07;;;;;;;7.73;100.00;101934.19;5031067;28;20097;-65
2023/03/20 03:43:40;;;;;;;27.08;11.15;;;;;;;7.68;100.00;101931.56;5048105;28;20021;-64
2023/03/20 03:46:19;;;;;;;24.88;11.18;;;;;;;7.68;100.00;101925.47;5031277;28;20025;-65
2023/03/20 03:48:47;;;;;;;;;;;;;;;7.61;100.00;101922.00;5047354;28;20017;-64
2023/03/20 03:51:15;;;;;;;24.90;10.45;;;;;;;7.67;100.00;101916.72;5029732;28;19912;-65
2023/03/20 03:53:47;;;;;;;18.67;11.10;;;;;;;7.70;100.00;101918.44;5031172;28;20036;-65
2023/03/20 03:56:15;;;;;;;22.52;10.68;;;;;;;7.68;100.00;101913.22;5027033;28;20040;-65
2023/03/20 03:58:45;;;;;;;19.75;11.20;;;;;;;7.62;100.00;101902.78;5028742;28;20022;-65
2023/03/20 04:01:11;;;;;;;23.55;11.52;;;;;;;7.63;100.00;101908.88;5028491;28;20159;-64
2023/03/20 04:03:41;;;;;;;20.70;11.48;;;;;;;7.53;100.00;101901.03;5036473;28;20107;-64
2023/03/20 04:06:09;;;;;;;19.65;10.85;;;;;;;7.63;100.00;101901.00;5031286;28;20025;-65
2023/03/20 04:08:34;;;;;;;22.38;11.60;;;;;;;7.54;100.00;101894.03;5046485;28;20035;-66
2023/03/20 04:11:00;;;;;;;23.52;11.50;;;;;;;7.57;100.00;101892.28;5048696;28;20037;-65
2023/03/20 04:13:25;;;;;;;24.88;11.27;;;;;;;7.59;100.00;101903.63;5030459;28;20536;-64
2023/03/20 04:15:51;;;;;;;19.65;10.38;;;;;;;7.61;100.00;101900.16;5047279;28;20660;-65
2023/03/20 04:18:17;;;;;;;15.88;10.65;;;;;;;7.54;100.00;101905.41;5045660;28;20054;-64
2023/03/20 04:20:43;;;;;;;20.30;11.23;;;;;;;7.56;100.00;101908.88;5047795;28;20037;-64
2023/03/20 04:23:09;;;;;;;20.70;10.80;;;;;;;7.54;100.00;101910.66;5046827;28;20031;-66
2023/03/20 04:25:34;;;;;;;20.88;10.77;;;;;;;7.53;100.00;101913.28;5048997;28;20092;-65
2023/03/20 04:28:00;;;;;;;21.58;10.70;;;;;;;7.51;100.00;101910.66;5047475;28;20052;-65
2023/03/20 04:30:26;;;;;;;23.85;11.02;;;;;;;7.54;100.00;101915.91;5047426;28;20071;-64
2023/03/20 04:32:51;;;;;;;20.63;11.00;;;;;;;7.52;100.00;101912.41;5047552;28;20549;-65
2023/03/20 04:35:16;;;;;;;14.75;9.90;;;;;;;7.52;100.00;101901.91;5046148;28;20021;-65
2023/03/20 04:37:42;;;;;;;27.88;11.82;;;;;;;7.54;100.00;101897.53;5048073;28;20043;-63
2023/03/20 04:40:08;;;;;;;24.38;10.45;;;;;;;7.55;100.00;101903.66;5047540;28;20031;-65
2023/03/20 04:42:33;;;;;;;20.45;11.07;;;;;;;7.50;100.00;101897.56;5047502;28;20029;-64
2023/03/20 04:44:59;;;;;;;22.02;10.27;;;;;;;7.56;100.00;101901.00;5029658;28;20032;-64
2023/03/20 04:47:24;;;;;;;19.45;10.18;;;;;;;7.58;100.00;101894.03;5045738;28;20060;-65
2023/03/20 04:49:49;;;;;;;20.65;9.75;;;;;;;7.59;100.00;101890.50;5048145;28;20074;-64
2023/03/20 04:52:15;;;;;;;20.35;10.32;;;;;;;7.56;100.00;101881.81;5047651;28;20052;-65
2023/03/20 04:54:40;;;;;;;22.60;10.60;;;;;;;7.58;100.00;101885.28;5029258;28;20028;-64
2023/03/20 04:57:05;;;;;;;24.48;10.73;;;;;;;7.57;100.00;101878.28;5047964;28;20037;-64
2023/03/20 04:59:31;;;;;;;19.88;10.98;;;;;;;7.57;100.00;101884.41;5046180;28;20060;-65
2023/03/20 05:01:56;;;;;;;16.52;10.07;;;;;;;7.56;100.00;101876.56;5047100;28;20024;-65
2023/03/20 05:04:21;;;;;;;21.42;10.35;;;;;;;7.54;100.00;101873.94;5045715;28;20025;-64
2023/03/20 05:06:48;;;;;;;18.70;10.50;;;;;;;7.61;100.00;101879.16;5047950;28;20021;-64
2023/03/20 05:09:15;;;;;;;17.70;9.82;;;;;;;7.59;100.00;101872.16;5046571;28;20423;-65
2023/03/20 05:11:40;;;;;;;25.33;10.57;;;;;;;7.59;100.00;101873.94;5028539;28;20054;-66
2023/03/20 05:14:06;;;;;;;23.55;11.13;;;;;;;7.61;100.00;101876.53;5046842;28;20036;-65
2023/03/20 05:16:31;;;;;;;21.48;10.68;;;;;;;7.58;100.00;101875.66;5045151;28;20107;-65
2023/03/20 05:18:57;;;;;;;25.55;11.43;;;;;;;7.55;100.00;101885.28;5046477;28;20032;-65
2023/03/20 05:21:22;;;;;;;23.63;11.05;;;;;;;7.65;100.00;101880.88;5026071;28;20086;-67
2023/03/20 05:23:47;;;;;;;25.80;12.45;;;;;;;7.64;100.00;101882.63;5046861;28;20033;-66
2023/03/20 05:26:13;;;;;;;28.08;11.20;;;;;;;7.57;100.00;101883.53;5046800;28;20023;-65
2023/03/20 05:28:38;;;;;;;20.95;11.32;;;;;;;7.58;100.00;101882.66;5047243;28;20031;-66
2023/03/20 05:31:04;;;;;;;24.13;11.38;;;;;;;7.62;100.00;101888.78;5046489;28;20021;-66
2023/03/20 05:33:29;;;;;;;18.33;11.20;;;;;;;7.67;100.00;101889.59;5045967;28;20021;-65
2023/03/20 05:35:54;;;;;;;21.48;10.63;;;;;;;7.55;100.00;101890.53;5047192;28;20040;-65
2023/03/20 05:38:21;;;;;;;19.13;11.45;;;;;;;7.62;100.00;101894.91;5046449;28;20596;-65
2023/03/20 05:40:48;;;;;;;23.35;11.82;;;;;;;7.53;100.00;101897.56;5046767;28;20438;-64
2023/03/20 05:43:13;;;;;;;25.80;11.15;;;;;;;7.58;100.00;101899.28;5045743;28;20538;-65
2023/03/20 05:45:38;;;;;;;24.65;11.18;;;;;;;7.61;100.00;101905.41;5046508;28;20033;-66
2023/03/20 05:48:04;;;;;;;23.52;10.95;;;;;;;7.61;100.00;101905.41;5049348;28;20040;-65
2023/03/20 05:50:30;;;;;;;27.63;12.82;;;;;;;7.64;100.00;101898.38;5050337;28;20436;-65
2023/03/20 05:52:55;;;;;;;27.02;11.25;;;;;;;7.68;100.00;101900.09;5049976;28;20025;-64
2023/03/20 05:55:20;;;;;;;23.17;11.00;;;;;;;7.65;100.00;101894.00;5050598;28;20480;-64
2023/03/20 05:57:46;;;;;;;27.48;11.63;;;;;;;7.71;100.00;101897.47;5050164;28;20465;-65
2023/03/20 06:00:11;;;;;;;20.77;11.35;;;;;;;7.74;100.00;101903.56;5049679;28;20025;-65
2023/03/20 06:02:37;;;;;;;29.27;11.88;;;;;;;7.79;100.00;101902.66;5050607;28;20025;-66
2023/03/20 06:05:03;;;;;;;16.35;10.30;;;;;;;7.77;100.00;101899.16;5051597;28;20052;-66
2023/03/20 06:07:28;;;;;;;26.98;11.70;;;;;;;7.76;100.00;101902.69;5049707;28;20508;-64
2023/03/20 06:09:54;;;;;;;21.95;10.30;;;;;;;7.79;100.00;101912.28;5050065;28;20032;-66
2023/03/20 06:12:19;;;;;;;28.80;11.23;;;;;;;7.81;100.00;101913.16;5049342;28;20540;-64
2023/03/20 06:14:45;;;;;;;21.23;10.50;;;;;;;7.84;100.00;101916.66;5050343;28;20104;-65
2023/03/20 06:17:10;;;;;;;23.95;11.23;;;;;;;7.88;100.00;101919.22;5048838;28;20583;-64
2023/03/20 06:19:35;;;;;;;29.83;11.15;;;;;;;7.91;100.00;101919.22;5050229;28;20565;-64
2023/03/20 06:22:01;;;;;;;26.05;11.43;;;;;;;7.95;100.00;101924.44;5049339;28;20068;-64
2023/03/20 06:24:26;;;;;;;24.77;10.68;;;;;;;7.96;100.00;101926.22;5049535;28;20067;-63
2023/03/20 06:26:52;;;;;;;27.98;11.90;;;;;;;7.92;100.00;101923.63;5048929;28;20025;-66
2023/03/20 06:29:17;;;;;;;22.58;9.88;;;;;;;8.00;100.00;101931.44;5049444;28;20051;-66
2023/03/20 06:31:43;;;;;;;23.13;10.48;;;;;;;8.06;100.00;101923.50;5043716;28;20064;-66
2023/03/20 06:34:09;;;;;;;21.92;10.15;;;;;;;8.06;100.00;101929.66;5038067;28;20053;-66
2023/03/20 06:36:34;;;;;;;22.90;10.68;;;;;;;8.10;100.00;101920.00;5040828;28;20045;-64
2023/03/20 06:38:59;;;;;;;24.63;10.60;;;;;;;8.04;100.00;101922.66;5040695;28;20356;-64
2023/03/20 06:41:25;;;;;;;29.30;10.50;;;;;;;8.09;100.00;101929.63;5036906;28;20028;-65
2023/03/20 06:43:50;;;;;;;20.48;10.50;;;;;;;8.11;100.00;101921.75;5038906;28;20027;-66
2023/03/20 06:46:15;;;;;;;28.05;9.10;;;;;;;8.15;100.00;101928.72;5038040;28;20541;-64
2023/03/20 06:48:41;;;;;;;17.25;9.00;;;;;;;8.17;100.00;101931.34;5046147;28;20371;-65
2023/03/20 06:51:06;;;;;;;21.67;9.50;;;;;;;8.17;100.00;101928.72;5040014;28;20620;-65
2023/03/20 06:53:32;;;;;;;19.23;8.80;;;;;;;8.17;100.00;101934.84;5044580;28;20118;-65
2023/03/20 06:55:57;;;;;;;17.25;8.68;;;;;;;8.15;100.00;101939.22;5045473;28;20021;-66
2023/03/20 06:58:23;;;;;;;24.95;9.30;;;;;;;8.16;100.00;101943.59;5037455;28;20049;-65
2023/03/20 07:00:48;;;;;;;18.35;8.50;;;;;;;8.22;100.00;101940.91;5045876;28;20032;-65
2023/03/20 07:03:14;;;;;;;20.48;8.77;;;;;;;8.15;100.00;101933.09;5039175;28;20117;-64
2023/03/20 07:05:40;;;;;;;23.13;8.10;;;;;;;8.26;100.00;101931.28;5041216;28;20382;-65
2023/03/20 07:08:06;;;;;;;21.20;8.73;;;;;;;8.26;100.00;101941.78;5049432;28;20035;-63
2023/03/20 07:10:32;;;;;;;21.52;7.35;;;;;;;8.33;100.00;101943.50;5047936;28;20104;-65
2023/03/20 07:12:59;;;;;;;22.63;8.15;;;;;;;8.38;100.00;101935.59;5048877;28;21061;-64
2023/03/20 07:15:25;;;;;;;15.27;7.43;;;;;;;8.45;100.00;101937.28;5048099;28;20393;-64
2023/03/20 07:17:50;;;;;;;19.45;7.47;;;;;;;8.40;100.00;101928.53;5047723;28;20025;-64
2023/03/20 07:20:15;;;;;;;14.45;6.75;;;;;;;8.50;100.00;101933.72;5046417;28;20122;-65
2023/03/20 07:22:41;;;;;;;25.25;7.38;;;;;;;8.54;100.00;101935.47;5029776;28;20040;-65
2023/03/20 07:25:10;;;;;;;15.48;6.55;;;;;;;8.56;100.00;101936.34;5029063;28;20017;-65
2023/03/20 07:27:36;;;;;;;17.00;6.30;;;;;;;8.53;100.00;101939.84;5047841;28;20028;-64
2023/03/20 07:30:03;;;;;;;14.68;6.40;;;;;;;8.61;100.00;101941.56;5030643;28;20017;-65
2023/03/20 07:32:28;;;;;;;17.38;6.60;;;;;;;8.63;100.00;101943.31;5042746;28;20955;-65
2023/03/20 07:34:53;;;;;;;18.58;6.43;;;;;;;8.69;100.00;101948.50;5046601;28;20021;-65
2023/03/20 07:37:19;;;;;;;20.17;6.63;;;;;;;8.65;100.00;101946.81;5022807;28;20092;-64
2023/03/20 07:39:44;;;;;;;16.50;5.93;;;;;;;8.66;100.00;101945.91;5017315;28;20025;-65
2023/03/20 07:42:09;;;;;;;16.83;6.20;;;;;;;8.63;100.00;101945.03;5031235;28;20075;-66
2023/03/20 07:44:35;;;;;;;15.68;6.72;;;;;;;8.68;100.00;101951.16;5039055;28;20090;-64
2023/03/20 07:47:00;;;;;;;15.93;5.95;;;;;;;8.64;100.00;101945.03;5039800;28;20025;-65
2023/03/20 07:49:26;;;;;;;19.95;7.13;;;;;;;8.70;100.00;101955.50;5047530;28;20207;-64
2023/03/20 07:51:53;;;;;;;14.90;6.55;;;;;;;8.78;100.00;101957.19;5028836;28;20028;-64
2023/03/20 07:54:19;;;;;;;20.27;5.63;;;;;;;8.89;100.00;101950.09;5047143;28;20056;-63
2023/03/20 07:56:44;;;;;;;13.75;6.18;;;;;;;8.87;100.00;101953.59;5028892;28;20020;-65
2023/03/20 07:59:11;;;;;;;21.20;6.45;;;;;;;8.80;100.00;101947.53;5047524;28;20671;-66
2023/03/20 08:01:36;;;;;;;21.27;6.45;;;;;;;8.77;100.00;101953.72;5040025;28;20031;-65
2023/03/20 08:04:02;;;;;;;17.33;6.13;;;;;;;8.76;100.00;101956.34;5021693;28;20017;-63
2023/03/20 08:06:27;;;;;;;15.10;6.10;;;;;;;8.88;100.00;101960.63;5036258;28;20052;-64
2023/03/20 08:08:52;;;;;;;22.65;6.47;;;;;;;8.88;100.00;101960.63;5036755;28;20052;-64
2023/03/20 08:11:18;;;;;;;18.33;5.63;;;;;;;8.89;100.00;101959.72;5037949;28;20427;-64
2023/03/20 08:13:44;;;;;;;18.80;5.03;;;;;;;8.78;100.00;101955.44;5019108;28;20037;-65
2023/03/20 08:16:10;;;;;;;18.33;5.03;;;;;;;8.78;100.00;101965.97;5018170;28;20131;-66
2023/03/20 08:18:35;;;;;;;14.15;4.97;;;;;;;8.88;100.00;101956.22;5035779;28;20037;-65
2023/03/20 08:21:00;;;;;;;13.88;4.40;;;;;;;8.95;100.00;101954.44;5038963;28;20021;-64
2023/03/20 08:23:26;;;;;;;20.27;5.43;;;;;;;9.10;100.00;101954.25;5037648;28;20159;-64
2023/03/20 08:25:53;;;;;;;12.20;4.90;;;;;;;9.15;100.00;101950.75;5017971;28;20482;-66
2023/03/20 08:28:19;;;;;;;14.73;5.03;;;;;;;9.15;100.00;101945.50;5039844;28;20454;-66
2023/03/20 08:30:45;;;;;;;16.02;5.43;;;;;;;9.22;100.00;101947.16;5047392;28;20112;-66
2023/03/20 08:33:10;;;;;;;13.77;4.93;;;;;;;9.21;100.00;101948.91;5038071;28;20028;-65
2023/03/20 08:35:36;;;;;;;18.23;5.10;;;;;;;9.34;100.00;101947.00;5039039;28;20025;-64
2023/03/20 08:38:01;;;;;;;15.38;4.95;;;;;;;9.25;100.00;101951.50;5038192;28;20021;-65
2023/03/20 08:40:27;;;;;;;12.80;4.95;;;;;;;9.30;100.00;101953.19;5034562;28;20362;-65
2023/03/20 08:42:53;;;;;;;14.98;5.00;;;;;;;9.29;100.00;101948.84;5036964;28;20017;-65
2023/03/20 08:45:18;;;;;;;16.33;4.97;;;;;;;9.28;100.00;101948.84;5034198;28;20070;-65
2023/03/20 08:47:47;;;;;;;13.15;5.13;;;;;;;9.01;100.00;101951.75;5036809;28;20037;-64
2023/03/20 08:50:13;;;;;;;18.17;5.70;;;;;;;9.20;100.00;101946.28;5019307;28;20473;-63
2023/03/20 08:52:42;;;;;;;14.80;4.82;;;;;;;9.44;100.00;101949.53;5037797;28;20029;-65
2023/03/20 08:55:11;;;;;;;16.30;5.00;;;;;;;9.68;100.00;101943.13;5037040;28;20485;-65
2023/03/20 08:57:37;;;;;;;17.02;4.60;;;;;;;9.69;100.00;101944.00;5036915;28;20029;-65
2023/03/20 09:00:05;;;;;;;13.48;5.05;;;;;;;9.50;100.00;101941.59;5037214;28;20492;-64
2023/03/20 09:02:30;;;;;;;18.27;5.68;;;;;;;9.68;100.00;101934.34;5045360;28;20025;-65
2023/03/20 09:04:56;;;;;;;15.48;5.72;;;;;;;9.79;100.00;101934.22;5040143;28;20067;-65
2023/03/20 09:07:21;;;;;;;17.13;5.85;;;;;;;9.83;100.00;101938.56;5035018;28;20033;-65
2023/03/20 09:09:47;;;;;;;16.33;5.07;;;;;;;9.87;100.00;101937.63;5018431;28;20017;-66
2023/03/20 09:12:12;;;;;;;17.48;5.80;;;;;;;9.89;100.00;101935.84;5036100;28;20041;-64
2023/03/20 09:14:37;;;;;;;14.70;5.50;;;;;;;9.78;100.00;101928.09;5019907;28;20116;-65
2023/03/20 09:17:03;;;;;;;18.33;5.47;;;;;;;9.77;100.00;101930.72;5034993;28;20059;-64
2023/03/20 09:19:28;;;;;;;20.45;6.53;;;;;;;9.79;100.00;101935.09;5037534;28;20021;-64
2023/03/20 09:21:54;;;;;;;23.15;6.72;;;;;;;9.95;100.00;101933.13;5038888;28;20133;-64
2023/03/20 09:24:19;;;;;;;18.38;6.22;;;;;;;9.91;100.00;101938.47;5046556;28;20029;-64
2023/03/20 09:26:45;;;;;;;17.83;6.25;;;;;;;9.89;100.00;101946.38;5037493;28;20060;-66
2023/03/20 09:29:10;;;;;;;20.67;6.40;;;;;;;9.96;100.00;101941.88;5037635;28;20028;-65
2023/03/20 09:31:35;;;;;;;16.95;6.30;;;;;;;10.06;100.00;101940.88;5034804;28;20037;-65
2023/03/20 09:34:01;;;;;;;16.90;6.28;;;;;;;10.03;100.00;101943.56;5043539;28;20024;-65
2023/03/20 09:36:26;;;;;;;17.42;7.20;;;;;;;10.04;100.00;101936.53;5035382;28;20014;-66
2023/03/20 09:38:51;;;;;;;18.85;7.30;;;;;;;9.88;100.00;101949.03;5037991;28;20043;-65
2023/03/20 09:41:22;;;;;;;21.08;7.47;;;;;;;10.06;100.00;101940.88;5046104;28;20573;-64
2023/03/20 09:43:51;;;;;;;17.60;7.47;;;;;;;9.93;100.00;101939.31;5027378;28;20436;-64
2023/03/20 09:46:36;;;;;;;15.52;7.28;;;;;;;9.80;100.00;101947.38;5020194;28;20083;-65
2023/03/20 09:49:59;;;;;;;17.38;7.68;;;;;;;9.80;100.00;101941.22;5016130;28;20175;-65
2023/03/20 09:52:31;;;;;;;19.60;8.00;;;;;;;9.68;100.00;101947.50;4960509;28;20050;-65
2023/03/20 09:55:03;;;;;;;18.48;7.68;;;;;;;10.09;100.00;101938.19;4946097;28;20054;-65
2023/03/20 09:57:37;;;;;;;16.65;8.20;;;;;;;10.33;100.00;101941.34;4991128;28;20049;-65
2023/03/20 10:00:16;;;;;;;18.67;7.82;;;;;;;10.27;100.00;101940.59;5017518;28;20025;-65
2023/03/20 10:02:55;;;;;;;16.10;8.05;;;;;;;10.11;100.00;101949.59;5026016;28;20425;-67
2023/03/20 10:05:27;;;;;;;28.95;9.15;;;;;;;10.25;100.00;101937.97;5034966;28;20033;-66
2023/03/20 10:08:01;;;;;;;18.67;8.57;;;;;;;10.27;100.00;101930.06;5044673;28;20032;-64
2023/03/20 10:10:59;;;;;;;23.00;8.70;;;;;;;10.28;100.00;101937.06;5044325;28;20033;-65
2023/03/20 10:13:36;;;;;;;18.98;8.70;;;;;;;10.40;100.00;101930.72;5020661;28;20087;-65
2023/03/20 10:16:08;;;;;;;17.40;8.07;;;;;;;10.47;100.00;101935.03;5044180;28;20120;-65
2023/03/20 10:18:34;;;;;;;20.05;9.15;;;;;;;10.51;100.00;101942.03;5045304;28;20044;-66
2023/03/20 10:21:17;;;;;;;23.00;9.00;;;;;;;10.56;100.00;101937.53;5026145;28;20485;-66
2023/03/20 10:23:59;;;;;;;25.10;9.50;;;;;;;10.69;100.00;101924.16;5045156;28;20128;-66
2023/03/20 10:26:26;;;;;;;19.85;9.40;;;;;;;10.89;100.00;101929.06;5025591;28;20063;-65
2023/03/20 10:28:57;;;;;;;24.58;9.07;;;;;;;11.08;100.00;101920.84;5026262;28;20036;-66
2023/03/20 10:31:42;;;;;;;23.02;8.98;;;;;;;11.27;100.00;101923.13;5043854;28;20491;-66
2023/03/20 10:34:23;;;;;;;17.83;7.95;;;;;;;11.24;100.00;101924.06;5029916;28;20178;-66
2023/03/20 10:36:54;;;;;;;17.15;8.13;;;;;;;11.24;100.00;101918.78;5031508;28;20052;-66
2023/03/20 10:39:49;;;;;;;17.27;8.45;;;;;;;11.17;100.00;101920.66;5047060;28;20040;-66
2023/03/20 10:42:19;;;;;;;19.70;8.48;;;;;;;11.08;100.00;101912.94;5018557;28;20040;-67
2023/03/20 10:44:57;;;;;;;20.70;8.38;;;;;;;11.01;100.00;101921.88;5030614;28;20040;-65
2023/03/20 10:47:26;;;;;;;23.17;8.57;;;;;;;11.03;100.00;101914.78;5031800;28;20415;-66
2023/03/20 10:49:55;;;;;;;21.40;8.10;;;;;;;11.02;100.00;101908.66;5027590;28;20022;-66
2023/03/20 10:52:35;;;;;;;23.55;8.57;;;;;;;11.07;100.00;101904.13;5011502;28;20091;-66
2023/03/20 10:55:11;;;;;;;15.65;7.82;;;;;;;10.90;100.00;101907.09;5020993;28;20024;-68
2023/03/20 10:57:45;;;;;;;17.52;8.73;;;;;;;10.79;100.00;101909.94;5021414;28;20051;-66
2023/03/20 11:00:19;;;;;;;21.73;7.55;;;;;;;10.79;100.00;101904.66;5021747;28;20032;-65
2023/03/20 11:02:45;;;;;;;19.15;8.43;;;;;;;10.77;100.00;101906.44;5036577;28;20645;-66
2023/03/20 11:05:19;;;;;;;20.25;8.65;;;;;;;10.91;100.00;101897.41;5043660;28;20033;-65
2023/03/20 11:07:45;;;;;;;23.27;9.70;;;;;;;10.91;100.00;101900.91;5039366;28;20386;-66
2023/03/20 11:10:13;;;;;;;19.48;8.40;;;;;;;10.72;100.00;101893.31;5026518;28;20448;-66
2023/03/20 11:12:40;;;;;;;19.88;9.00;;;;;;;10.58;100.00;101888.31;5049091;28;20045;-67
2023/03/20 11:15:25;;;;;;;18.63;9.50;;;;;;;10.64;100.00;101883.81;5030991;28;20035;-66
2023/03/20 11:17:59;;;;;;;22.65;8.98;;;;;;;10.80;100.00;101892.31;5048860;28;20110;-65
2023/03/20 11:20:26;;;;;;;18.75;8.40;;;;;;;10.86;100.00;101887.81;5046980;28;20064;-68
2023/03/20 11:22:58;;;;;;;21.48;8.68;;;;;;;10.53;100.00;101884.88;5025263;28;20060;-67
2023/03/20 11:25:28;;;;;;;20.63;9.35;;;;;;;10.71;100.00;101883.69;5037164;28;20017;-68